UAL652 KBOS-KDCA
Flight info
| Callsign | UAL652 |
|---|---|
| Flight time | N/A |
| Altitude | 34000 |
| Route | SSOXS7 SSOXS Q167 ZIZZI KNUKK ATR LAFLN DEALE3 |
| Aircraft | B736/M-SDE2E3FGHIRWXY/LB1 |
Departure
| Time | 2026-05-06 01:07 |
|---|---|
| Airport | Boston Logan International Airport (KBOS) |
Arrival
| Time | N/A |
|---|---|
| Airport | Ronald Reagan Washington National Airport (KDCA) |
| Time | Latitude | Longitude | Altitude | Speed | Heading |
|---|---|---|---|---|---|
| 2026-05-06 00:34 | 42.36471 | -71.01464 | 16 ft | 0 kts | 342° |
| 2026-05-06 00:55 | 42.36469 | -71.01463 | 16 ft | 1 kts | 342° |
| 2026-05-06 00:55 | 42.36460 | -71.01459 | 16 ft | 3 kts | 5° |
| 2026-05-06 00:55 | 42.36436 | -71.01467 | 16 ft | 2 kts | 5° |
| 2026-05-06 00:55 | 42.36423 | -71.01468 | 18 ft | 3 kts | 16° |
| 2026-05-06 00:56 | 42.36410 | -71.01480 | 17 ft | 3 kts | 78° |
| 2026-05-06 00:56 | 42.36411 | -71.01505 | 17 ft | 3 kts | 112° |
| 2026-05-06 00:56 | 42.36418 | -71.01524 | 16 ft | 1 kts | 120° |
| 2026-05-06 00:56 | 42.36420 | -71.01529 | 16 ft | 0 kts | 120° |
| 2026-05-06 00:59 | 42.36419 | -71.01527 | 16 ft | 2 kts | 120° |
| 2026-05-06 00:59 | 42.36392 | -71.01455 | 17 ft | 11 kts | 101° |
| 2026-05-06 00:59 | 42.36435 | -71.01383 | 16 ft | 11 kts | 22° |
| 2026-05-06 01:00 | 42.36504 | -71.01343 | 16 ft | 11 kts | 25° |
| 2026-05-06 01:00 | 42.36582 | -71.01293 | 15 ft | 12 kts | 22° |
| 2026-05-06 01:00 | 42.36663 | -71.01259 | 16 ft | 12 kts | 15° |
| 2026-05-06 01:00 | 42.36745 | -71.01239 | 15 ft | 12 kts | 357° |
| 2026-05-06 01:01 | 42.36819 | -71.01289 | 15 ft | 12 kts | 356° |
| 2026-05-06 01:01 | 42.36887 | -71.01224 | 12 ft | 12 kts | 41° |
| 2026-05-06 01:01 | 42.36948 | -71.01151 | 12 ft | 12 kts | 41° |
| 2026-05-06 01:01 | 42.37017 | -71.01089 | 11 ft | 13 kts | 26° |
| 2026-05-06 01:02 | 42.37109 | -71.01029 | 11 ft | 16 kts | 26° |
| 2026-05-06 01:02 | 42.37203 | -71.00967 | 11 ft | 15 kts | 25° |
| 2026-05-06 01:02 | 42.37251 | -71.00936 | 11 ft | 2 kts | 26° |
| 2026-05-06 01:02 | 42.37273 | -71.00922 | 10 ft | 9 kts | 26° |
| 2026-05-06 01:03 | 42.37382 | -71.00865 | 10 ft | 21 kts | 20° |
| 2026-05-06 01:03 | 42.37515 | -71.00802 | 14 ft | 20 kts | 19° |
| 2026-05-06 01:03 | 42.37644 | -71.00740 | 18 ft | 19 kts | 20° |
| 2026-05-06 01:03 | 42.37761 | -71.00682 | 23 ft | 16 kts | 20° |
| 2026-05-06 01:04 | 42.37836 | -71.00627 | 22 ft | 9 kts | 59° |
| 2026-05-06 01:04 | 42.37834 | -71.00561 | 22 ft | 0 kts | 108° |
| 2026-05-06 01:05 | 42.37831 | -71.00547 | 24 ft | 4 kts | 108° |
| 2026-05-06 01:05 | 42.37814 | -71.00487 | 22 ft | 8 kts | 121° |
| 2026-05-06 01:06 | 42.37761 | -71.00482 | 19 ft | 12 kts | 198° |
| 2026-05-06 01:06 | 42.37529 | -71.00596 | 15 ft | 66 kts | 200° |
| 2026-05-06 01:06 | 42.36913 | -71.00894 | 14 ft | 117 kts | 200° |
| 2026-05-06 01:06 | 42.36030 | -71.01330 | 60 ft | 149 kts | 200° |
| 2026-05-06 01:07 | 42.35046 | -71.01801 | 572 ft | 152 kts | 198° |
| 2026-05-06 01:07 | 42.33998 | -71.01853 | 1138 ft | 158 kts | 159° |
| 2026-05-06 01:07 | 42.33336 | -71.00610 | 1955 ft | 164 kts | 140° |
| 2026-05-06 01:07 | 42.32622 | -70.99411 | 2325 ft | 180 kts | 148° |
| 2026-05-06 01:08 | 42.31740 | -70.97965 | 2614 ft | 216 kts | 139° |
| 2026-05-06 01:08 | 42.31168 | -70.95889 | 2941 ft | 259 kts | 100° |
| 2026-05-06 01:08 | 42.31416 | -70.93353 | 3270 ft | 281 kts | 81° |
| 2026-05-06 01:08 | 42.31831 | -70.90701 | 3700 ft | 298 kts | 81° |
| 2026-05-06 01:09 | 42.32249 | -70.87907 | 4352 ft | 306 kts | 81° |
| 2026-05-06 01:09 | 42.32660 | -70.85066 | 5195 ft | 309 kts | 81° |
| 2026-05-06 01:09 | 42.33061 | -70.82206 | 6017 ft | 312 kts | 83° |
| 2026-05-06 01:09 | 42.32998 | -70.79305 | 6854 ft | 307 kts | 109° |
| 2026-05-06 01:10 | 42.32233 | -70.76649 | 7818 ft | 301 kts | 120° |
| 2026-05-06 01:10 | 42.31336 | -70.74085 | 8735 ft | 304 kts | 121° |
| 2026-05-06 01:10 | 42.30425 | -70.71490 | 9705 ft | 307 kts | 120° |
| 2026-05-06 01:10 | 42.29280 | -70.69089 | 10503 ft | 306 kts | 140° |
| 2026-05-06 01:11 | 42.27493 | -70.67457 | 10774 ft | 320 kts | 163° |
| 2026-05-06 01:11 | 42.25332 | -70.66435 | 11226 ft | 335 kts | 167° |
| 2026-05-06 01:11 | 42.23111 | -70.65470 | 12026 ft | 340 kts | 167° |
| 2026-05-06 01:11 | 42.20876 | -70.64483 | 12920 ft | 343 kts | 166° |
| 2026-05-06 01:12 | 42.18590 | -70.63451 | 13822 ft | 348 kts | 166° |
| 2026-05-06 01:12 | 42.16276 | -70.62396 | 14614 ft | 352 kts | 166° |
| 2026-05-06 01:12 | 42.13890 | -70.61795 | 15385 ft | 349 kts | 184° |
| 2026-05-06 01:12 | 42.11509 | -70.62273 | 16230 ft | 345 kts | 199° |
| 2026-05-06 01:13 | 42.09207 | -70.63248 | 17045 ft | 349 kts | 202° |
| 2026-05-06 01:13 | 42.06895 | -70.64306 | 17811 ft | 355 kts | 202° |
| 2026-05-06 01:13 | 42.04548 | -70.65389 | 18565 ft | 360 kts | 202° |
| 2026-05-06 01:13 | 42.02156 | -70.66477 | 19265 ft | 364 kts | 202° |
| 2026-05-06 01:14 | 41.97283 | -70.68650 | 20685 ft | 374 kts | 202° |
| 2026-05-06 01:14 | 41.94791 | -70.69746 | 21375 ft | 378 kts | 202° |
| 2026-05-06 01:14 | 41.92276 | -70.70849 | 22051 ft | 383 kts | 202° |
| 2026-05-06 01:15 | 41.89720 | -70.71968 | 22725 ft | 388 kts | 202° |
| 2026-05-06 01:15 | 41.87141 | -70.73097 | 23394 ft | 392 kts | 202° |
| 2026-05-06 01:15 | 41.84538 | -70.74236 | 23966 ft | 397 kts | 202° |
| 2026-05-06 01:15 | 41.81997 | -70.75659 | 24513 ft | 396 kts | 211° |
| 2026-05-06 01:16 | 41.79566 | -70.77469 | 25070 ft | 399 kts | 213° |
| 2026-05-06 01:16 | 41.77156 | -70.79358 | 25596 ft | 403 kts | 214° |
| 2026-05-06 01:16 | 41.74748 | -70.81247 | 26128 ft | 408 kts | 214° |
| 2026-05-06 01:16 | 41.72247 | -70.83178 | 26642 ft | 413 kts | 213° |
| 2026-05-06 01:17 | 41.69736 | -70.85086 | 27138 ft | 417 kts | 213° |
| 2026-05-06 01:17 | 41.67221 | -70.86978 | 27622 ft | 422 kts | 213° |
| 2026-05-06 01:17 | 41.64611 | -70.88929 | 28115 ft | 426 kts | 213° |
| 2026-05-06 01:17 | 41.62013 | -70.90869 | 28721 ft | 427 kts | 213° |
| 2026-05-06 01:18 | 41.59427 | -70.92798 | 29448 ft | 425 kts | 213° |
| 2026-05-06 01:18 | 41.56888 | -70.94801 | 30130 ft | 421 kts | 219° |
| 2026-05-06 01:18 | 41.54632 | -70.97259 | 30649 ft | 417 kts | 228° |
| 2026-05-06 01:18 | 41.52687 | -71.00097 | 31222 ft | 412 kts | 237° |
| 2026-05-06 01:19 | 41.51094 | -71.03188 | 31815 ft | 408 kts | 241° |
| 2026-05-06 01:19 | 41.49544 | -71.06344 | 32372 ft | 406 kts | 241° |
| 2026-05-06 01:19 | 41.47998 | -71.09509 | 32900 ft | 406 kts | 242° |
| 2026-05-06 01:19 | 41.46455 | -71.12646 | 33435 ft | 405 kts | 242° |
| 2026-05-06 01:20 | 41.44905 | -71.15769 | 33925 ft | 405 kts | 242° |
| 2026-05-06 01:20 | 41.43326 | -71.18937 | 33921 ft | 415 kts | 242° |
| 2026-05-06 01:20 | 41.40066 | -71.25433 | 33945 ft | 426 kts | 241° |
| 2026-05-06 01:21 | 41.36764 | -71.31983 | 33943 ft | 427 kts | 241° |
| 2026-05-06 01:21 | 41.33452 | -71.38538 | 33966 ft | 426 kts | 241° |
| 2026-05-06 01:22 | 41.30136 | -71.45084 | 33971 ft | 425 kts | 241° |
| 2026-05-06 01:22 | 41.26832 | -71.51596 | 33978 ft | 423 kts | 241° |
| 2026-05-06 01:23 | 41.23548 | -71.58057 | 33979 ft | 421 kts | 241° |